createdAt,value
2023-10-07T00:00:53.685Z,90.30
2023-10-07T00:03:22.865Z,90.30
2023-10-07T00:05:51.580Z,90.50
2023-10-07T00:08:21.286Z,91.10
2023-10-07T00:10:51.699Z,91.40
2023-10-07T00:13:21.278Z,91.80
2023-10-07T00:15:53.181Z,92.10
2023-10-07T00:18:23.985Z,92.40
2023-10-07T00:20:55.460Z,92.40
2023-10-07T00:23:24.011Z,92.50
2023-10-07T00:25:53.931Z,92.60
2023-10-07T00:28:29.896Z,92.40
2023-10-07T00:31:03.637Z,92.90
2023-10-07T00:33:46.651Z,92.90
2023-10-07T00:36:23.049Z,93.10
2023-10-07T00:38:55.101Z,92.50
2023-10-07T00:41:25.763Z,92.80
2023-10-07T00:43:59.863Z,93.00
2023-10-07T00:46:30.309Z,93.60
2023-10-07T00:49:00.137Z,93.90
2023-10-07T00:51:35.435Z,94.00
2023-10-07T00:54:17.611Z,94.00
2023-10-07T00:56:51.910Z,93.90
2023-10-07T00:59:20.817Z,93.70
2023-10-07T01:01:51.803Z,93.40
2023-10-07T01:04:21.703Z,93.40
2023-10-07T01:06:49.546Z,92.70
2023-10-07T01:09:23.213Z,93.10
2023-10-07T01:11:58.487Z,93.10
2023-10-07T01:14:27.824Z,92.90
2023-10-07T01:16:57.626Z,92.50
2023-10-07T01:19:44.151Z,92.20
2023-10-07T01:22:19.696Z,92.50
2023-10-07T01:24:50.395Z,92.50
2023-10-07T01:27:32.874Z,92.60
2023-10-07T01:30:08.236Z,92.50
2023-10-07T01:32:44.006Z,92.50
2023-10-07T01:35:12.929Z,92.70
2023-10-07T01:37:46.144Z,92.20
2023-10-07T01:40:17.180Z,91.60
2023-10-07T01:42:47.944Z,92.10
2023-10-07T01:45:23.038Z,92.20
2023-10-07T01:47:54.332Z,92.40
2023-10-07T01:50:24.658Z,92.50
2023-10-07T01:52:57.084Z,91.80
2023-10-07T01:55:28.799Z,91.50
2023-10-07T01:57:57.048Z,91.30
2023-10-07T02:00:40.257Z,92.00
2023-10-07T02:03:10.780Z,92.20
2023-10-07T02:05:41.993Z,92.40
2023-10-07T02:08:15.142Z,92.40
2023-10-07T02:10:43.526Z,92.80
2023-10-07T02:13:15.102Z,92.40
2023-10-07T02:15:44.187Z,92.40
2023-10-07T02:18:16.863Z,92.60
2023-10-07T02:20:50.365Z,92.80
2023-10-07T02:23:29.073Z,92.90
2023-10-07T02:25:59.507Z,93.40
2023-10-07T02:28:34.352Z,92.90
2023-10-07T02:31:08.811Z,93.20
2023-10-07T02:33:43.933Z,93.60
2023-10-07T02:36:14.904Z,93.90
2023-10-07T02:38:44.163Z,93.90
2023-10-07T02:41:18.375Z,93.70
2023-10-07T02:43:50.780Z,93.60
2023-10-07T02:46:33.036Z,93.60
2023-10-07T02:49:07.529Z,93.70
2023-10-07T02:51:40.591Z,93.90
2023-10-07T02:54:18.327Z,93.90
2023-10-07T02:56:55.316Z,94.20
2023-10-07T02:59:28.939Z,94.30
2023-10-07T03:02:11.255Z,94.30
2023-10-07T03:04:42.832Z,94.00
2023-10-07T03:07:15.871Z,94.10
2023-10-07T03:09:47.375Z,94.00
2023-10-07T03:12:15.249Z,94.00
2023-10-07T03:14:45.191Z,93.70
2023-10-07T03:17:21.407Z,93.70
2023-10-07T03:19:54.057Z,93.90
2023-10-07T03:22:29.348Z,93.90
2023-10-07T03:25:01.764Z,94.10
2023-10-07T03:27:40.362Z,94.00
2023-10-07T03:30:14.559Z,94.10
2023-10-07T03:32:56.840Z,94.10
2023-10-07T03:35:43.287Z,94.20
2023-10-07T03:38:12.264Z,94.50
2023-10-07T03:40:49.256Z,94.70
2023-10-07T03:43:17.547Z,94.80
2023-10-07T03:45:46.659Z,94.90
2023-10-07T03:48:28.391Z,94.80
2023-10-07T03:51:05.929Z,94.60
2023-10-07T03:53:34.077Z,94.10
2023-10-07T03:56:07.723Z,94.20
2023-10-07T03:58:37.703Z,94.10
2023-10-07T04:01:12.955Z,93.90
2023-10-07T04:03:41.811Z,93.80
2023-10-07T04:06:11.151Z,94.10
2023-10-07T04:08:40.716Z,94.10
2023-10-07T04:11:17.986Z,94.00
2023-10-07T04:13:54.286Z,94.50
2023-10-07T04:16:25.238Z,94.70
2023-10-07T04:18:54.113Z,94.60
2023-10-07T04:21:22.554Z,94.30
2023-10-07T04:23:50.348Z,94.30
2023-10-07T04:26:21.500Z,94.10
2023-10-07T04:28:50.351Z,93.90
2023-10-07T04:31:18.690Z,93.90
2023-10-07T04:33:54.756Z,94.00
2023-10-07T04:36:36.465Z,94.10
2023-10-07T04:39:18.993Z,94.20
2023-10-07T04:41:57.905Z,93.90
2023-10-07T04:44:49.314Z,93.60
2023-10-07T04:47:31.527Z,93.50
2023-10-07T04:50:06.500Z,93.80
2023-10-07T04:52:35.291Z,94.20
2023-10-07T04:55:03.461Z,94.30
2023-10-07T04:57:46.599Z,94.10
2023-10-07T05:00:28.894Z,94.10
2023-10-07T05:02:58.621Z,94.00
2023-10-07T05:05:30.039Z,94.20
2023-10-07T05:07:59.749Z,94.40
2023-10-07T05:10:30.380Z,94.20
2023-10-07T05:13:02.180Z,94.20
2023-10-07T05:15:31.885Z,94.40
2023-10-07T05:18:02.698Z,94.90
2023-10-07T05:20:33.935Z,95.10
2023-10-07T05:23:04.280Z,95.10
2023-10-07T05:25:36.993Z,94.80
2023-10-07T05:28:11.744Z,94.80
2023-10-07T05:30:42.430Z,94.80
2023-10-07T05:33:10.787Z,94.90
2023-10-07T05:35:39.675Z,95.30
2023-10-07T05:38:10.872Z,95.70
2023-10-07T05:40:39.013Z,95.40
2023-10-07T05:43:09.220Z,95.20
2023-10-07T05:45:37.186Z,95.10
2023-10-07T05:48:05.752Z,95.30
2023-10-07T05:50:33.774Z,95.40
2023-10-07T05:53:04.166Z,95.40
2023-10-07T05:55:31.982Z,95.60
2023-10-07T05:57:59.741Z,95.90
2023-10-07T06:00:32.821Z,95.80
2023-10-07T06:03:06.727Z,95.30
2023-10-07T06:05:34.834Z,95.10
2023-10-07T06:08:05.806Z,94.50
2023-10-07T06:10:35.076Z,94.20
2023-10-07T06:13:09.244Z,93.90
2023-10-07T06:15:39.108Z,93.60
2023-10-07T06:18:07.350Z,93.40
2023-10-07T06:20:38.719Z,93.00
2023-10-07T06:23:14.664Z,92.60
2023-10-07T06:25:49.885Z,92.60
2023-10-07T06:28:30.885Z,92.70
2023-10-07T06:31:11.741Z,92.30
2023-10-07T06:33:41.713Z,92.70
2023-10-07T06:36:11.318Z,92.70
2023-10-07T06:38:46.315Z,92.70
2023-10-07T06:41:15.000Z,93.00
2023-10-07T06:43:44.863Z,93.00
2023-10-07T06:46:14.152Z,93.00
2023-10-07T06:48:42.271Z,93.10
2023-10-07T06:51:12.299Z,92.90
2023-10-07T06:53:43.959Z,93.00
2023-10-07T06:56:21.718Z,93.50
2023-10-07T06:58:54.331Z,91.80
2023-10-07T07:01:39.174Z,88.30
2023-10-07T07:04:12.347Z,84.40
2023-10-07T07:06:44.124Z,82.20
2023-10-07T07:09:26.632Z,79.00
2023-10-07T07:11:54.683Z,77.10
2023-10-07T07:14:22.434Z,77.30
2023-10-07T07:16:52.171Z,78.10
2023-10-07T07:19:24.183Z,78.70
2023-10-07T07:21:51.478Z,79.90
2023-10-07T07:24:23.556Z,80.80
2023-10-07T07:26:53.639Z,79.10
2023-10-07T07:29:24.525Z,75.80
2023-10-07T07:31:54.101Z,73.50
2023-10-07T07:34:27.006Z,74.70
2023-10-07T07:37:02.403Z,70.20
2023-10-07T07:39:31.608Z,69.10
2023-10-07T07:42:16.169Z,68.00
2023-10-07T07:44:56.822Z,68.90
2023-10-07T07:47:31.993Z,69.40
2023-10-07T07:50:03.082Z,72.60
2023-10-07T07:52:33.155Z,73.70
2023-10-07T07:55:00.984Z,73.90
2023-10-07T07:57:29.054Z,71.40
2023-10-07T07:59:59.112Z,72.70
2023-10-07T08:02:28.304Z,72.70
2023-10-07T08:05:04.139Z,72.40
2023-10-07T08:07:31.560Z,71.00
2023-10-07T08:10:04.635Z,73.60
2023-10-07T08:12:35.165Z,70.10
2023-10-07T08:15:15.874Z,67.60
2023-10-07T08:17:46.482Z,65.70
2023-10-07T08:20:16.075Z,65.10
2023-10-07T08:22:47.519Z,63.50
2023-10-07T08:25:18.182Z,59.70
2023-10-07T08:27:46.273Z,57.70
2023-10-07T08:30:29.540Z,55.40
2023-10-07T08:32:58.808Z,56.50
2023-10-07T08:35:27.586Z,55.10
2023-10-07T08:37:55.559Z,54.90
2023-10-07T08:40:29.842Z,55.80
2023-10-07T08:42:59.817Z,54.60
2023-10-07T08:45:29.783Z,54.20
2023-10-07T08:48:16.132Z,56.20
2023-10-07T08:50:56.175Z,57.20
2023-10-07T08:53:25.719Z,58.10
2023-10-07T08:55:58.042Z,58.70
2023-10-07T08:58:27.878Z,59.40
2023-10-07T09:00:57.925Z,60.40
2023-10-07T09:03:30.674Z,62.00
2023-10-07T09:06:07.279Z,63.90
2023-10-07T09:08:35.570Z,65.00
2023-10-07T09:11:08.863Z,65.00
2023-10-07T09:13:39.607Z,64.00
2023-10-07T09:16:11.171Z,64.10
2023-10-07T09:18:42.880Z,61.20
2023-10-07T09:21:20.175Z,62.30
2023-10-07T09:23:50.071Z,63.00
2023-10-07T09:26:23.072Z,63.10
2023-10-07T09:28:59.417Z,66.90
2023-10-07T09:31:29.006Z,64.60
2023-10-07T09:34:11.408Z,64.70
2023-10-07T09:36:41.905Z,63.50
2023-10-07T09:39:26.886Z,62.30
2023-10-07T09:42:05.214Z,61.80
2023-10-07T09:44:39.099Z,61.90
2023-10-07T09:47:22.195Z,57.70
2023-10-07T09:49:59.086Z,54.50
2023-10-07T09:52:34.019Z,50.40
2023-10-07T09:55:27.163Z,47.70
2023-10-07T09:58:13.371Z,47.60
2023-10-07T10:01:05.429Z,45.60
2023-10-07T10:03:49.434Z,46.50
2023-10-07T10:06:36.005Z,44.60
2023-10-07T10:09:10.945Z,46.90
2023-10-07T10:11:47.177Z,46.60
2023-10-07T10:14:22.589Z,47.40
2023-10-07T10:16:56.267Z,47.00
2023-10-07T10:19:30.633Z,49.40
2023-10-07T10:22:12.534Z,49.30
2023-10-07T10:24:45.525Z,50.80
2023-10-07T10:27:16.014Z,50.00
2023-10-07T10:29:53.526Z,50.70
2023-10-07T10:32:30.465Z,49.60
2023-10-07T10:35:03.060Z,54.70
2023-10-07T10:37:32.812Z,53.60
2023-10-07T10:40:06.715Z,55.70
2023-10-07T10:42:42.486Z,57.70
2023-10-07T10:45:19.329Z,56.50
2023-10-07T10:47:51.937Z,55.40
2023-10-07T10:50:21.190Z,56.50
2023-10-07T10:52:50.983Z,55.00
2023-10-07T10:55:19.390Z,55.80
2023-10-07T10:57:47.502Z,55.30
2023-10-07T11:00:23.311Z,55.30
2023-10-07T11:02:54.082Z,55.60
2023-10-07T11:05:23.010Z,56.80
2023-10-07T11:07:55.622Z,56.00
2023-10-07T11:10:24.471Z,56.80
2023-10-07T11:12:55.647Z,57.10
2023-10-07T11:15:27.305Z,56.50
2023-10-07T11:17:57.087Z,55.80
2023-10-07T11:20:26.052Z,54.80
2023-10-07T11:22:55.585Z,55.40
2023-10-07T11:25:31.662Z,56.00
2023-10-07T11:28:06.386Z,55.80
2023-10-07T11:30:45.266Z,58.10
2023-10-07T11:33:17.263Z,56.10
2023-10-07T11:35:47.309Z,56.30
2023-10-07T11:38:19.653Z,55.40
2023-10-07T11:40:47.523Z,55.00
2023-10-07T11:43:15.327Z,55.50
2023-10-07T11:45:44.915Z,54.90
2023-10-07T11:48:12.887Z,56.40
2023-10-07T11:50:40.835Z,55.10
2023-10-07T11:53:09.185Z,53.90
2023-10-07T11:55:38.895Z,55.60
2023-10-07T11:58:09.024Z,54.40
2023-10-07T12:00:37.858Z,56.60
2023-10-07T12:03:09.300Z,55.70
2023-10-07T12:05:40.256Z,55.90
2023-10-07T12:08:13.986Z,54.80
2023-10-07T12:10:44.160Z,55.30
2023-10-07T12:13:13.040Z,56.90
2023-10-07T12:15:53.686Z,58.40
2023-10-07T12:18:32.048Z,58.70
2023-10-07T12:21:02.049Z,56.10
2023-10-07T12:23:30.852Z,55.30
2023-10-07T12:26:02.500Z,58.10
2023-10-07T12:28:32.420Z,57.20
2023-10-07T12:31:00.866Z,56.30
2023-10-07T12:33:36.594Z,56.70
2023-10-07T12:36:11.708Z,57.60
2023-10-07T12:38:39.829Z,58.90
2023-10-07T12:41:11.067Z,59.90
2023-10-07T12:43:39.848Z,56.20
2023-10-07T12:46:10.763Z,56.90
2023-10-07T12:48:41.194Z,58.80
2023-10-07T12:51:09.634Z,57.60
2023-10-07T12:53:37.930Z,56.60
2023-10-07T12:56:15.727Z,58.30
2023-10-07T12:58:46.937Z,56.90
2023-10-07T13:01:15.029Z,58.30
2023-10-07T13:03:44.691Z,57.20
2023-10-07T13:06:15.608Z,57.10
2023-10-07T13:08:44.906Z,56.70
2023-10-07T13:11:16.072Z,54.90
2023-10-07T13:13:46.539Z,55.50
2023-10-07T13:16:16.156Z,56.60
2023-10-07T13:18:46.170Z,55.70
2023-10-07T13:21:17.485Z,55.80
2023-10-07T13:23:47.174Z,58.70
2023-10-07T13:26:19.139Z,56.00
2023-10-07T13:28:49.472Z,54.40
2023-10-07T13:31:23.145Z,56.00
2023-10-07T13:33:53.144Z,56.10
2023-10-07T13:36:21.156Z,55.00
2023-10-07T13:38:49.108Z,54.70
2023-10-07T13:41:19.803Z,54.80
2023-10-07T13:43:47.787Z,54.00
2023-10-07T13:46:15.925Z,54.50
2023-10-07T13:48:44.536Z,55.20
2023-10-07T13:51:13.026Z,53.10
2023-10-07T13:54:13.530Z,53.50
2023-10-07T13:56:58.294Z,54.00
2023-10-07T13:59:27.549Z,54.70
2023-10-07T14:01:57.287Z,52.00
2023-10-07T14:04:26.575Z,54.00
2023-10-07T14:06:57.214Z,53.50
2023-10-07T14:09:26.354Z,55.80
2023-10-07T14:11:56.720Z,53.40
2023-10-07T14:14:26.083Z,55.50
2023-10-07T14:17:00.764Z,56.10
2023-10-07T14:19:31.106Z,54.30
2023-10-07T14:22:00.844Z,51.50
2023-10-07T14:24:30.668Z,52.60
2023-10-07T14:27:00.643Z,51.40
2023-10-07T14:29:28.961Z,54.20
2023-10-07T14:31:56.915Z,53.60
2023-10-07T14:34:24.840Z,52.40
2023-10-07T14:36:52.689Z,53.50
2023-10-07T14:39:28.337Z,50.50
2023-10-07T14:42:12.102Z,52.00
2023-10-07T14:44:40.848Z,52.20
2023-10-07T14:47:08.866Z,51.00
2023-10-07T14:49:37.347Z,51.20
2023-10-07T14:52:07.577Z,49.80
2023-10-07T14:54:35.755Z,49.40
2023-10-07T14:57:05.047Z,51.30
2023-10-07T14:59:35.336Z,51.40
2023-10-07T15:02:03.832Z,51.90
2023-10-07T15:04:31.955Z,51.40
2023-10-07T15:06:59.957Z,51.80
2023-10-07T15:09:28.643Z,51.40
2023-10-07T15:11:57.463Z,51.90
2023-10-07T15:14:25.696Z,51.30
2023-10-07T15:16:55.882Z,52.50
2023-10-07T15:19:24.592Z,53.30
2023-10-07T15:21:53.092Z,53.00
2023-10-07T15:24:21.538Z,53.60
2023-10-07T15:26:50.213Z,51.70
2023-10-07T15:29:18.678Z,53.00
2023-10-07T15:31:48.177Z,53.40
2023-10-07T15:34:20.562Z,52.60
2023-10-07T15:36:51.207Z,54.90
2023-10-07T15:39:19.607Z,55.30
2023-10-07T15:41:47.443Z,56.30
2023-10-07T15:44:15.453Z,55.50
2023-10-07T15:46:43.421Z,61.10
2023-10-07T15:49:12.974Z,65.70
2023-10-07T15:51:45.448Z,67.50
2023-10-07T15:54:15.427Z,68.20
2023-10-07T15:56:43.540Z,69.70
2023-10-07T15:59:12.659Z,69.60
2023-10-07T16:01:44.193Z,70.60
2023-10-07T16:04:13.514Z,71.00
2023-10-07T16:06:44.580Z,71.90
2023-10-07T16:09:15.673Z,72.10
2023-10-07T16:11:44.680Z,73.30
2023-10-07T16:14:13.126Z,74.00
2023-10-07T16:16:41.146Z,74.10
2023-10-07T16:19:12.004Z,74.10
2023-10-07T16:21:40.242Z,75.00
2023-10-07T16:24:12.274Z,75.30
2023-10-07T16:26:41.350Z,76.70
2023-10-07T16:29:10.146Z,76.80
2023-10-07T16:31:38.875Z,77.50
2023-10-07T16:34:06.843Z,77.10
2023-10-07T16:36:34.862Z,78.30
2023-10-07T16:39:03.346Z,79.30
2023-10-07T16:41:35.624Z,79.40
2023-10-07T16:44:04.848Z,79.90
2023-10-07T16:46:32.947Z,80.30
2023-10-07T16:49:01.375Z,80.60
2023-10-07T16:51:30.186Z,81.30
2023-10-07T16:53:58.070Z,81.30
2023-10-07T16:56:26.281Z,82.20
2023-10-07T16:58:55.424Z,82.60
2023-10-07T17:01:23.413Z,82.50
2023-10-07T17:03:51.581Z,83.00
2023-10-07T17:06:20.083Z,82.90
2023-10-07T17:08:48.862Z,83.20
2023-10-07T17:11:19.084Z,83.20
2023-10-07T17:13:47.508Z,83.40
2023-10-07T17:16:19.094Z,83.20
2023-10-07T17:18:47.880Z,83.50
2023-10-07T17:21:16.283Z,83.90
2023-10-07T17:23:44.255Z,84.20
2023-10-07T17:26:12.378Z,84.30
2023-10-07T17:28:40.458Z,84.50
2023-10-07T17:31:11.185Z,84.40
2023-10-07T17:33:41.032Z,84.70
2023-10-07T17:36:08.946Z,84.90
2023-10-07T17:38:37.221Z,84.90
2023-10-07T17:41:05.322Z,84.90
2023-10-07T17:43:33.265Z,84.80
2023-10-07T17:46:01.317Z,84.20
2023-10-07T17:48:29.984Z,84.20
2023-10-07T17:50:59.187Z,84.40
2023-10-07T17:53:27.124Z,84.10
2023-10-07T17:55:55.661Z,84.00
2023-10-07T17:58:23.775Z,84.40
2023-10-07T18:00:55.186Z,84.30
2023-10-07T18:03:24.360Z,84.60
2023-10-07T18:05:52.354Z,84.90
2023-10-07T18:08:22.304Z,85.10
2023-10-07T18:10:50.328Z,84.90
2023-10-07T18:13:22.239Z,84.70
2023-10-07T18:15:50.461Z,84.60
2023-10-07T18:18:18.935Z,85.10
2023-10-07T18:20:51.020Z,85.60
2023-10-07T18:23:18.889Z,85.70
2023-10-07T18:25:49.444Z,85.50
2023-10-07T18:28:17.529Z,85.60
2023-10-07T18:30:45.977Z,85.20
2023-10-07T18:33:14.491Z,85.30
2023-10-07T18:35:42.358Z,85.70
2023-10-07T18:38:10.307Z,85.90
2023-10-07T18:40:39.273Z,86.00
2023-10-07T18:43:08.732Z,85.80
2023-10-07T18:45:36.815Z,86.00
2023-10-07T18:48:06.035Z,86.00
2023-10-07T18:50:35.946Z,86.20
2023-10-07T18:53:06.318Z,86.00
2023-10-07T18:55:34.169Z,86.30
2023-10-07T18:58:08.795Z,86.30
2023-10-07T19:00:39.063Z,86.40
2023-10-07T19:03:07.367Z,86.50
2023-10-07T19:05:35.895Z,86.70
2023-10-07T19:08:04.306Z,86.70
2023-10-07T19:10:32.337Z,86.70
2023-10-07T19:13:00.915Z,86.50
2023-10-07T19:15:28.671Z,86.40
2023-10-07T19:17:58.292Z,86.50
2023-10-07T19:20:26.138Z,86.70
2023-10-07T19:22:53.977Z,86.70
2023-10-07T19:25:21.859Z,86.50
2023-10-07T19:27:49.725Z,86.70
2023-10-07T19:30:19.322Z,86.70
2023-10-07T19:32:47.242Z,86.50
2023-10-07T19:35:16.433Z,86.40
2023-10-07T19:37:44.298Z,86.40
2023-10-07T19:40:12.438Z,86.40
2023-10-07T19:42:40.934Z,86.40
2023-10-07T19:45:11.449Z,86.70
2023-10-07T19:47:40.151Z,86.90
2023-10-07T19:50:09.099Z,87.00
2023-10-07T19:52:39.778Z,87.20
2023-10-07T19:55:08.910Z,87.40
2023-10-07T19:57:37.043Z,87.50
2023-10-07T20:00:07.552Z,87.70
2023-10-07T20:02:38.019Z,88.00
2023-10-07T20:05:09.820Z,88.00
2023-10-07T20:07:40.370Z,88.00
2023-10-07T20:10:11.882Z,88.00
2023-10-07T20:12:41.284Z,88.00
2023-10-07T20:15:10.759Z,87.90
2023-10-07T20:17:41.545Z,88.00
2023-10-07T20:20:11.647Z,88.30
2023-10-07T20:22:43.515Z,88.50
2023-10-07T20:25:12.533Z,88.80
2023-10-07T20:27:45.187Z,89.10
2023-10-07T20:30:15.982Z,89.10
2023-10-07T20:32:44.020Z,88.80
2023-10-07T20:35:12.181Z,88.60
2023-10-07T20:37:41.355Z,88.60
2023-10-07T20:40:12.055Z,88.70
2023-10-07T20:42:41.493Z,88.60
2023-10-07T20:45:12.228Z,88.60
2023-10-07T20:47:40.816Z,88.90
2023-10-07T20:50:09.404Z,89.00
2023-10-07T20:52:37.729Z,89.00
2023-10-07T20:55:07.239Z,88.70
2023-10-07T20:57:35.347Z,88.70
2023-10-07T21:00:06.084Z,88.90
2023-10-07T21:02:35.084Z,89.00
2023-10-07T21:05:02.995Z,88.70
2023-10-07T21:07:30.980Z,88.90
2023-10-07T21:09:58.859Z,89.10
2023-10-07T21:12:27.940Z,89.10
2023-10-07T21:14:55.791Z,89.30
2023-10-07T21:17:23.630Z,89.50
2023-10-07T21:19:51.466Z,89.40
2023-10-07T21:22:19.275Z,89.50
2023-10-07T21:24:47.141Z,89.50
2023-10-07T21:27:15.043Z,89.60
2023-10-07T21:29:44.152Z,89.60
2023-10-07T21:32:12.392Z,89.40
2023-10-07T21:34:40.506Z,89.60
2023-10-07T21:37:08.228Z,89.70
2023-10-07T21:39:36.240Z,89.70
2023-10-07T21:42:04.507Z,89.70
2023-10-07T21:44:34.726Z,89.70
2023-10-07T21:47:04.219Z,89.70
2023-10-07T21:49:32.068Z,89.90
2023-10-07T21:51:59.844Z,89.90
2023-10-07T21:54:27.844Z,89.90
2023-10-07T21:56:55.916Z,90.10
2023-10-07T21:59:23.643Z,90.10
2023-10-07T22:01:54.036Z,90.20
2023-10-07T22:04:23.464Z,90.20
2023-10-07T22:06:51.326Z,90.30
2023-10-07T22:09:19.743Z,90.30
2023-10-07T22:11:50.649Z,90.50
2023-10-07T22:14:18.964Z,90.80
2023-10-07T22:16:46.913Z,91.10
2023-10-07T22:19:14.702Z,91.30
2023-10-07T22:21:44.255Z,91.50
2023-10-07T22:24:12.059Z,91.50
2023-10-07T22:26:40.310Z,91.50
2023-10-07T22:29:08.634Z,91.50
2023-10-07T22:31:46.887Z,91.50
2023-10-07T22:34:15.780Z,91.70
2023-10-07T22:36:45.453Z,91.70
2023-10-07T22:39:30.614Z,91.60
2023-10-07T22:41:59.974Z,91.70
2023-10-07T22:44:27.843Z,91.80
2023-10-07T22:46:57.303Z,92.00
2023-10-07T22:49:27.945Z,92.20
2023-10-07T22:52:01.558Z,92.10
2023-10-07T22:54:33.210Z,92.00
2023-10-07T22:57:01.492Z,92.00
2023-10-07T22:59:29.365Z,92.00
2023-10-07T23:01:58.655Z,92.20
2023-10-07T23:04:28.318Z,92.50
2023-10-07T23:06:58.365Z,92.70
2023-10-07T23:09:29.755Z,92.70
2023-10-07T23:12:03.798Z,92.90
2023-10-07T23:14:31.796Z,92.30
2023-10-07T23:16:59.602Z,92.10
2023-10-07T23:19:40.823Z,92.10
2023-10-07T23:22:15.301Z,92.40
2023-10-07T23:24:52.109Z,92.20
2023-10-07T23:27:23.430Z,92.20
2023-10-07T23:29:55.951Z,92.30
2023-10-07T23:32:26.018Z,92.40
2023-10-07T23:35:00.386Z,92.30
2023-10-07T23:37:31.345Z,92.30
2023-10-07T23:39:59.244Z,92.30
2023-10-07T23:42:27.503Z,92.50
2023-10-07T23:44:55.805Z,92.80
2023-10-07T23:47:24.706Z,92.90
2023-10-07T23:49:55.634Z,93.00
2023-10-07T23:52:25.420Z,93.00
2023-10-07T23:54:58.199Z,92.90
2023-10-07T23:57:30.806Z,92.90
2023-10-07T23:59:59.194Z,92.90
